createdAt,value
2022-09-06T00:00:26.675Z,13.72
2022-09-06T00:02:54.481Z,13.73
2022-09-06T00:05:22.353Z,13.62
2022-09-06T00:07:49.738Z,13.64
2022-09-06T00:10:17.409Z,13.48
2022-09-06T00:12:44.692Z,13.51
2022-09-06T00:15:12.090Z,13.54
2022-09-06T00:17:39.837Z,13.76
2022-09-06T00:20:10.872Z,13.78
2022-09-06T00:22:38.852Z,13.75
2022-09-06T00:25:07.427Z,13.69
2022-09-06T00:27:35.705Z,13.70
2022-09-06T00:30:04.881Z,13.49
2022-09-06T00:32:33.347Z,13.46
2022-09-06T00:35:01.050Z,13.28
2022-09-06T00:37:28.397Z,12.96
2022-09-06T00:39:56.180Z,12.90
2022-09-06T00:42:23.671Z,13.10
2022-09-06T00:44:51.226Z,13.19
2022-09-06T00:47:19.765Z,13.27
2022-09-06T00:49:52.318Z,13.17
2022-09-06T00:52:20.582Z,13.27
2022-09-06T00:54:50.261Z,13.10
2022-09-06T00:57:18.378Z,12.75
2022-09-06T00:59:47.762Z,12.91
2022-09-06T01:02:15.138Z,12.69
2022-09-06T01:04:44.740Z,12.97
2022-09-06T01:07:47.764Z,13.11
2022-09-06T01:10:45.522Z,13.00
2022-09-06T01:13:21.294Z,12.78
2022-09-06T01:16:12.007Z,12.93
2022-09-06T01:19:11.108Z,13.09
2022-09-06T01:21:50.299Z,13.16
2022-09-06T01:24:48.044Z,13.19
2022-09-06T01:27:37.281Z,13.16
2022-09-06T01:30:07.945Z,13.03
2022-09-06T01:32:54.077Z,12.83
2022-09-06T01:35:58.446Z,12.81
2022-09-06T01:38:26.193Z,12.85
2022-09-06T01:40:54.088Z,12.66
2022-09-06T01:43:31.292Z,12.73
2022-09-06T01:46:20.799Z,12.77
2022-09-06T01:48:57.317Z,12.70
2022-09-06T01:51:35.459Z,12.58
2022-09-06T01:54:02.799Z,12.66
2022-09-06T01:56:53.384Z,12.51
2022-09-06T01:59:34.378Z,12.25
2022-09-06T02:02:17.350Z,12.15
2022-09-06T02:04:51.732Z,12.35
2022-09-06T02:07:28.547Z,12.11
2022-09-06T02:10:38.571Z,12.28
2022-09-06T02:13:07.751Z,12.34
2022-09-06T02:15:40.317Z,12.20
2022-09-06T02:18:16.394Z,11.92
2022-09-06T02:20:54.726Z,12.07
2022-09-06T02:23:25.478Z,12.02
2022-09-06T02:26:05.229Z,11.88
2022-09-06T02:28:33.241Z,11.98
2022-09-06T02:31:10.359Z,11.83
2022-09-06T02:33:38.161Z,11.86
2022-09-06T02:36:09.025Z,12.03
2022-09-06T02:38:39.622Z,12.14
2022-09-06T02:41:08.622Z,12.18
2022-09-06T02:43:36.369Z,12.04
2022-09-06T02:46:04.001Z,12.15
2022-09-06T02:48:31.761Z,12.13
2022-09-06T02:51:03.050Z,12.14
2022-09-06T02:53:30.393Z,12.17
2022-09-06T02:55:58.295Z,12.05
2022-09-06T02:58:25.743Z,11.90
2022-09-06T03:00:53.608Z,11.84
2022-09-06T03:03:22.300Z,11.84
2022-09-06T03:05:51.173Z,11.89
2022-09-06T03:08:20.599Z,11.87
2022-09-06T03:10:56.316Z,11.87
2022-09-06T03:13:24.834Z,11.90
2022-09-06T03:15:54.258Z,11.91
2022-09-06T03:18:29.411Z,12.01
2022-09-06T03:20:58.342Z,11.99
2022-09-06T03:23:28.348Z,12.04
2022-09-06T03:25:56.094Z,11.81
2022-09-06T03:28:24.001Z,11.59
2022-09-06T03:30:52.194Z,11.54
2022-09-06T03:33:21.772Z,11.76
2022-09-06T03:35:50.556Z,11.78
2022-09-06T03:38:18.513Z,11.83
2022-09-06T03:40:47.528Z,11.73
2022-09-06T03:43:17.343Z,11.48
2022-09-06T03:45:53.545Z,11.54
2022-09-06T03:48:23.543Z,11.82
2022-09-06T03:50:53.434Z,11.76
2022-09-06T03:53:22.466Z,11.80
2022-09-06T03:55:52.827Z,11.54
2022-09-06T03:58:22.655Z,11.25
2022-09-06T04:00:59.545Z,11.36
2022-09-06T04:03:27.369Z,11.38
2022-09-06T04:05:54.761Z,11.47
2022-09-06T04:08:22.244Z,11.47
2022-09-06T04:10:53.034Z,11.55
2022-09-06T04:13:21.110Z,11.37
2022-09-06T04:15:48.520Z,11.37
2022-09-06T04:18:17.086Z,11.60
2022-09-06T04:20:48.486Z,11.23
2022-09-06T04:23:16.726Z,11.29
2022-09-06T04:25:53.704Z,11.49
2022-09-06T04:28:22.230Z,11.47
2022-09-06T04:31:07.695Z,11.37
2022-09-06T04:33:36.595Z,11.24
2022-09-06T04:36:07.666Z,11.45
2022-09-06T04:38:43.627Z,11.54
2022-09-06T04:41:12.865Z,11.62
2022-09-06T04:43:42.525Z,11.28
2022-09-06T04:46:25.514Z,11.00
2022-09-06T04:48:55.302Z,11.31
2022-09-06T04:51:23.231Z,11.40
2022-09-06T04:53:51.525Z,11.38
2022-09-06T04:56:25.264Z,11.73
2022-09-06T04:58:55.029Z,11.55
2022-09-06T05:01:23.408Z,11.67
2022-09-06T05:03:53.979Z,11.86
2022-09-06T05:06:25.114Z,11.35
2022-09-06T05:08:52.995Z,11.54
2022-09-06T05:11:20.647Z,11.79
2022-09-06T05:13:50.471Z,12.03
2022-09-06T05:16:18.475Z,11.88
2022-09-06T05:18:45.995Z,12.02
2022-09-06T05:21:13.777Z,11.85
2022-09-06T05:23:41.257Z,11.95
2022-09-06T05:26:08.921Z,12.02
2022-09-06T05:28:37.216Z,12.22
2022-09-06T05:31:09.806Z,12.24
2022-09-06T05:33:39.606Z,11.74
2022-09-06T05:36:08.814Z,12.18
2022-09-06T05:38:36.248Z,12.35
2022-09-06T05:41:04.110Z,12.48
2022-09-06T05:43:31.534Z,12.50
2022-09-06T05:45:59.494Z,12.71
2022-09-06T05:48:27.477Z,12.82
2022-09-06T05:51:07.016Z,12.68
2022-09-06T05:53:36.020Z,12.85
2022-09-06T05:56:05.306Z,13.04
2022-09-06T05:58:32.839Z,13.28
2022-09-06T06:01:15.258Z,13.26
2022-09-06T06:03:50.023Z,13.38
2022-09-06T06:06:19.709Z,13.63
2022-09-06T06:08:48.410Z,13.53
2022-09-06T06:11:17.062Z,13.47
2022-09-06T06:13:44.792Z,13.90
2022-09-06T06:16:15.327Z,14.07
2022-09-06T06:18:42.886Z,14.21
2022-09-06T06:21:19.404Z,14.12
2022-09-06T06:23:49.526Z,14.39
2022-09-06T06:26:16.975Z,14.41
2022-09-06T06:28:44.700Z,14.86
2022-09-06T06:31:13.278Z,15.12
2022-09-06T06:33:40.860Z,15.27
2022-09-06T06:36:21.967Z,15.34
2022-09-06T06:38:52.209Z,15.38
2022-09-06T06:41:21.454Z,15.43
2022-09-06T06:43:48.797Z,15.58
2022-09-06T06:46:18.539Z,15.42
2022-09-06T06:48:48.635Z,15.46
2022-09-06T06:51:19.991Z,15.70
2022-09-06T06:53:49.139Z,15.82
2022-09-06T06:56:21.514Z,15.83
2022-09-06T06:58:51.479Z,16.33
2022-09-06T07:01:21.023Z,16.41
2022-09-06T07:03:49.721Z,16.59
2022-09-06T07:06:18.459Z,16.97
2022-09-06T07:08:46.985Z,17.26
2022-09-06T07:11:16.811Z,17.36
2022-09-06T07:13:45.755Z,17.56
2022-09-06T07:16:15.604Z,17.74
2022-09-06T07:18:45.401Z,17.95
2022-09-06T07:26:33.777Z,17.94
2022-09-06T07:29:03.061Z,18.19
2022-09-06T07:34:21.645Z,18.25
2022-09-06T07:36:56.495Z,18.47
2022-09-06T07:39:24.434Z,18.82
2022-09-06T07:41:52.567Z,19.08
2022-09-06T07:44:20.364Z,19.03
2022-09-06T07:46:48.014Z,19.27
2022-09-06T07:49:16.065Z,19.36
2022-09-06T07:51:43.485Z,19.61
2022-09-06T07:54:30.069Z,19.63
2022-09-06T07:56:58.667Z,20.03
2022-09-06T07:59:26.064Z,20.21
2022-09-06T08:01:53.771Z,20.39
2022-09-06T08:04:21.483Z,20.36
2022-09-06T08:09:38.866Z,20.80
2022-09-06T08:12:09.575Z,20.49
2022-09-06T08:14:36.977Z,20.68
2022-09-06T08:17:05.002Z,21.09
2022-09-06T08:19:32.681Z,21.23
2022-09-06T08:22:00.155Z,21.06
2022-09-06T08:24:27.966Z,21.07
2022-09-06T08:26:55.479Z,21.16
2022-09-06T08:29:22.924Z,21.41
2022-09-06T08:31:50.658Z,20.88
2022-09-06T08:34:18.102Z,21.09
2022-09-06T08:36:46.077Z,21.58
2022-09-06T08:39:13.822Z,22.08
2022-09-06T08:41:58.703Z,22.32
2022-09-06T08:44:57.352Z,22.56
2022-09-06T08:47:25.450Z,21.96
2022-09-06T08:50:12.007Z,21.61
2022-09-06T08:53:15.660Z,22.32
2022-09-06T08:55:55.932Z,22.08
2022-09-06T08:58:35.202Z,22.12
2022-09-06T09:01:07.790Z,22.08
2022-09-06T09:03:37.546Z,22.44
2022-09-06T09:06:09.455Z,22.26
2022-09-06T09:09:04.872Z,22.42
2022-09-06T09:11:36.251Z,22.44
2022-09-06T09:14:27.956Z,23.00
2022-09-06T09:17:00.278Z,23.40
2022-09-06T09:19:27.597Z,23.67
2022-09-06T09:21:55.890Z,23.97
2022-09-06T09:24:25.171Z,24.23
2022-09-06T09:27:02.992Z,24.42
2022-09-06T09:29:35.655Z,24.72
2022-09-06T09:32:04.039Z,24.02
2022-09-06T09:34:36.461Z,24.35
2022-09-06T09:40:26.262Z,24.55
2022-09-06T09:42:57.079Z,24.99
2022-09-06T09:45:34.493Z,25.16
2022-09-06T09:48:24.099Z,24.94
2022-09-06T09:50:52.010Z,24.53
2022-09-06T09:53:22.553Z,23.97
2022-09-06T09:55:56.373Z,23.79
2022-09-06T09:58:37.278Z,24.05
2022-09-06T10:01:20.216Z,23.62
2022-09-06T10:09:35.605Z,24.66
2022-09-06T10:12:03.625Z,24.92
2022-09-06T10:14:39.723Z,24.90
2022-09-06T10:17:07.874Z,25.19
2022-09-06T10:19:45.891Z,25.65
2022-09-06T10:22:21.606Z,25.41
2022-09-06T10:25:08.732Z,25.96
2022-09-06T10:27:55.682Z,26.34
2022-09-06T10:30:39.900Z,25.66
2022-09-06T10:33:26.897Z,25.77
2022-09-06T10:35:58.090Z,25.68
2022-09-06T10:38:35.927Z,25.18
2022-09-06T10:41:25.992Z,25.01
2022-09-06T10:44:08.914Z,25.33
2022-09-06T10:46:37.360Z,25.57
2022-09-06T10:49:09.836Z,25.99
2022-09-06T10:51:44.266Z,26.04
2022-09-06T10:54:14.244Z,26.26
2022-09-06T10:56:54.156Z,26.71
2022-09-06T11:02:32.976Z,26.21
2022-09-06T11:10:55.647Z,26.49
2022-09-06T11:13:28.520Z,26.66
2022-09-06T11:16:21.816Z,26.75
2022-09-06T11:19:04.255Z,26.10
2022-09-06T11:21:49.958Z,26.76
2022-09-06T11:24:26.215Z,26.89
2022-09-06T11:27:06.885Z,27.14
2022-09-06T11:29:39.247Z,26.99
2022-09-06T11:32:38.045Z,27.33
2022-09-06T11:35:11.346Z,27.56
2022-09-06T11:37:44.053Z,27.51
2022-09-06T11:42:59.569Z,27.98
2022-09-06T11:45:44.854Z,27.92
2022-09-06T11:48:24.171Z,28.17
2022-09-06T11:51:01.881Z,28.51
2022-09-06T11:53:32.865Z,28.14
2022-09-06T11:56:00.571Z,28.08
2022-09-06T11:58:40.339Z,27.87
2022-09-06T12:01:14.167Z,27.54
2022-09-06T12:06:41.019Z,27.22
2022-09-06T12:09:39.454Z,27.08
2022-09-06T12:12:07.086Z,26.92
2022-09-06T12:14:43.388Z,26.91
2022-09-06T12:17:11.649Z,26.60
2022-09-06T12:19:44.379Z,26.65
2022-09-06T12:22:31.334Z,26.64
2022-09-06T12:25:02.072Z,26.73
2022-09-06T12:27:33.598Z,26.42
2022-09-06T12:30:07.080Z,26.10
2022-09-06T12:32:37.351Z,26.25
2022-09-06T12:38:06.679Z,25.97
2022-09-06T12:40:41.029Z,25.90
2022-09-06T12:43:11.986Z,25.52
2022-09-06T12:45:50.840Z,25.54
2022-09-06T12:48:35.534Z,25.18
2022-09-06T12:51:13.761Z,25.19
2022-09-06T12:53:41.189Z,25.38
2022-09-06T12:56:12.792Z,25.38
2022-09-06T12:58:40.914Z,25.16
2022-09-06T13:01:12.659Z,25.15
2022-09-06T13:04:02.950Z,25.04
2022-09-06T13:06:37.528Z,25.34
2022-09-06T13:09:08.229Z,25.36
2022-09-06T13:11:41.911Z,25.23
2022-09-06T13:14:17.857Z,24.63
2022-09-06T13:16:53.865Z,25.06
2022-09-06T13:19:51.182Z,25.08
2022-09-06T13:22:40.491Z,24.93
2022-09-06T13:25:18.638Z,25.26
2022-09-06T13:27:51.292Z,25.19
2022-09-06T13:30:42.495Z,25.36
2022-09-06T13:33:26.090Z,25.10
2022-09-06T13:36:24.583Z,24.87
2022-09-06T13:38:52.591Z,24.56
2022-09-06T13:41:25.949Z,24.65
2022-09-06T13:44:06.168Z,24.33
2022-09-06T13:46:36.361Z,24.61
2022-09-06T13:49:05.833Z,24.70
2022-09-06T13:51:34.215Z,24.54
2022-09-06T13:54:10.785Z,24.75
2022-09-06T13:56:39.550Z,24.72
2022-09-06T13:59:10.051Z,24.57
2022-09-06T14:01:39.959Z,24.33
2022-09-06T14:04:08.468Z,24.65
2022-09-06T14:06:37.046Z,24.43
2022-09-06T14:09:07.768Z,24.20
2022-09-06T14:11:36.798Z,24.52
2022-09-06T14:14:05.102Z,25.05
2022-09-06T14:16:33.986Z,24.90
2022-09-06T14:19:02.828Z,25.35
2022-09-06T14:21:30.269Z,25.25
2022-09-06T14:24:03.329Z,26.03
2022-09-06T14:26:33.344Z,26.22
2022-09-06T14:29:00.876Z,27.27
2022-09-06T14:31:29.531Z,27.79
2022-09-06T14:33:58.500Z,28.48
2022-09-06T14:36:29.464Z,28.13
2022-09-06T14:38:59.428Z,28.32
2022-09-06T14:41:27.509Z,28.06
2022-09-06T14:43:57.461Z,27.75
2022-09-06T14:46:27.094Z,27.24
2022-09-06T14:49:01.025Z,25.90
2022-09-06T14:51:30.340Z,26.02
2022-09-06T14:54:02.304Z,25.77
2022-09-06T14:56:30.506Z,25.48
2022-09-06T14:59:00.015Z,24.79
2022-09-06T15:01:32.931Z,24.78
2022-09-06T15:04:04.995Z,25.04
2022-09-06T15:06:34.086Z,25.72
2022-09-06T15:09:01.567Z,27.68
2022-09-06T15:11:41.519Z,29.29
2022-09-06T15:14:14.179Z,30.49
2022-09-06T15:16:42.624Z,30.35
2022-09-06T15:19:10.456Z,30.48
2022-09-06T15:21:37.952Z,30.88
2022-09-06T15:24:11.559Z,31.76
2022-09-06T15:26:41.715Z,31.25
2022-09-06T15:29:13.715Z,29.98
2022-09-06T15:31:42.765Z,28.89
2022-09-06T15:34:10.634Z,27.35
2022-09-06T15:36:39.136Z,25.74
2022-09-06T15:39:06.869Z,25.57
2022-09-06T15:41:37.546Z,24.98
2022-09-06T15:44:13.651Z,24.31
2022-09-06T15:46:41.425Z,24.29
2022-09-06T15:49:11.102Z,23.96
2022-09-06T15:51:40.265Z,23.65
2022-09-06T15:54:09.455Z,23.57
2022-09-06T15:56:37.174Z,23.66
2022-09-06T15:59:05.543Z,23.12
2022-09-06T16:01:34.332Z,23.19
2022-09-06T16:04:06.827Z,23.03
2022-09-06T16:06:37.842Z,22.93
2022-09-06T16:09:09.166Z,23.02
2022-09-06T16:11:37.628Z,22.96
2022-09-06T16:14:07.193Z,22.62
2022-09-06T16:16:36.053Z,22.22
2022-09-06T16:19:03.770Z,22.03
2022-09-06T16:21:33.545Z,22.20
2022-09-06T16:24:04.758Z,21.88
2022-09-06T16:26:35.824Z,22.09
2022-09-06T16:29:05.255Z,22.28
2022-09-06T16:31:39.961Z,22.24
2022-09-06T16:34:09.280Z,22.13
2022-09-06T16:36:37.599Z,22.12
2022-09-06T16:39:05.783Z,22.03
2022-09-06T16:41:43.697Z,22.11
2022-09-06T16:44:16.837Z,21.95
2022-09-06T16:46:47.178Z,21.98
2022-09-06T16:49:17.469Z,21.86
2022-09-06T16:51:46.137Z,21.73
2022-09-06T16:54:15.686Z,21.81
2022-09-06T16:56:44.165Z,21.57
2022-09-06T16:59:12.566Z,21.56
2022-09-06T17:01:43.685Z,21.58
2022-09-06T17:04:13.041Z,21.52
2022-09-06T17:06:47.057Z,21.09
2022-09-06T17:09:18.838Z,21.22
2022-09-06T17:11:50.206Z,21.00
2022-09-06T17:14:18.691Z,20.78
2022-09-06T17:17:05.189Z,20.80
2022-09-06T17:19:39.620Z,20.93
2022-09-06T17:22:11.538Z,21.06
2022-09-06T17:24:40.834Z,20.88
2022-09-06T17:27:09.558Z,20.77
2022-09-06T17:29:37.502Z,20.80
2022-09-06T17:32:10.291Z,20.69
2022-09-06T17:34:38.791Z,20.70
2022-09-06T17:37:06.676Z,20.69
2022-09-06T17:39:33.993Z,20.72
2022-09-06T17:42:02.294Z,20.72
2022-09-06T17:44:30.108Z,20.78
2022-09-06T17:47:14.067Z,20.66
2022-09-06T17:49:43.417Z,20.50
2022-09-06T17:52:11.560Z,20.45
2022-09-06T17:54:38.935Z,20.25
2022-09-06T17:57:06.446Z,20.28
2022-09-06T17:59:35.783Z,20.40
2022-09-06T18:02:04.353Z,20.10
2022-09-06T18:04:32.627Z,19.95
2022-09-06T18:06:59.927Z,20.24
2022-09-06T18:09:27.351Z,20.21
2022-09-06T18:11:55.055Z,20.17
2022-09-06T18:14:23.567Z,19.51
2022-09-06T18:16:53.121Z,19.53
2022-09-06T18:19:22.219Z,19.67
2022-09-06T18:21:50.247Z,19.71
2022-09-06T18:24:17.955Z,19.78
2022-09-06T18:26:46.276Z,19.79
2022-09-06T18:29:17.010Z,19.77
2022-09-06T18:31:44.798Z,19.84
2022-09-06T18:34:12.951Z,19.64
2022-09-06T18:36:40.907Z,19.71
2022-09-06T18:39:08.343Z,19.25
2022-09-06T18:41:54.544Z,18.67
2022-09-06T18:44:21.949Z,19.00
2022-09-06T18:46:50.164Z,19.16
2022-09-06T18:49:17.901Z,18.97
2022-09-06T18:51:45.990Z,19.00
2022-09-06T18:54:14.530Z,19.06
2022-09-06T18:56:42.675Z,19.15
2022-09-06T18:59:11.182Z,19.14
2022-09-06T19:01:44.045Z,19.29
2022-09-06T19:04:12.479Z,19.01
2022-09-06T19:06:41.456Z,19.00
2022-09-06T19:09:13.629Z,19.09
2022-09-06T19:11:43.151Z,18.84
2022-09-06T19:14:10.794Z,18.76
2022-09-06T19:16:38.303Z,18.64
2022-09-06T19:19:07.319Z,18.38
2022-09-06T19:21:39.373Z,18.42
2022-09-06T19:24:10.684Z,18.60
2022-09-06T19:26:40.183Z,18.47
2022-09-06T19:29:09.486Z,18.20
2022-09-06T19:31:38.180Z,18.26
2022-09-06T19:34:06.065Z,18.10
2022-09-06T19:36:34.170Z,18.09
2022-09-06T19:39:06.553Z,17.96
2022-09-06T19:41:36.499Z,18.02
2022-09-06T19:44:06.092Z,17.98
2022-09-06T19:46:35.024Z,18.15
2022-09-06T19:49:02.520Z,18.13
2022-09-06T19:51:30.361Z,17.75
2022-09-06T19:53:58.265Z,17.59
2022-09-06T19:56:26.892Z,17.68
2022-09-06T19:58:55.782Z,17.52
2022-09-06T20:01:24.067Z,17.62
2022-09-06T20:03:52.547Z,17.49
2022-09-06T20:06:19.837Z,17.46
2022-09-06T20:08:50.156Z,17.40
2022-09-06T20:11:18.536Z,17.46
2022-09-06T20:13:45.970Z,17.40
2022-09-06T20:16:13.767Z,17.28
2022-09-06T20:18:41.900Z,17.23
2022-09-06T20:21:09.190Z,17.23
2022-09-06T20:23:36.945Z,17.18
2022-09-06T20:26:06.221Z,17.21
2022-09-06T20:28:33.977Z,17.18
2022-09-06T20:31:02.539Z,17.11
2022-09-06T20:33:30.369Z,17.09
2022-09-06T20:35:58.794Z,17.05
2022-09-06T20:38:26.196Z,17.13
2022-09-06T20:40:57.651Z,17.01
2022-09-06T20:43:25.261Z,16.94
2022-09-06T20:45:52.960Z,16.75
2022-09-06T20:48:20.673Z,16.72
2022-09-06T20:50:56.112Z,16.60
2022-09-06T20:53:23.771Z,16.50
2022-09-06T20:55:58.161Z,16.46
2022-09-06T20:58:25.845Z,16.28
2022-09-06T21:00:53.356Z,16.50
2022-09-06T21:03:21.412Z,16.63
2022-09-06T21:05:48.989Z,16.62
2022-09-06T21:08:16.870Z,16.40
2022-09-06T21:10:44.325Z,16.40
2022-09-06T21:13:12.456Z,16.64
2022-09-06T21:15:43.101Z,16.38
2022-09-06T21:18:10.416Z,15.82
2022-09-06T21:20:38.061Z,15.99
2022-09-06T21:23:05.713Z,15.91
2022-09-06T21:25:32.849Z,15.68
2022-09-06T21:28:00.411Z,15.87
2022-09-06T21:30:27.670Z,15.86
2022-09-06T21:32:55.207Z,15.90
2022-09-06T21:35:22.901Z,15.99
2022-09-06T21:37:51.198Z,15.98
2022-09-06T21:40:18.382Z,15.70
2022-09-06T21:42:46.327Z,15.72
2022-09-06T21:45:13.439Z,15.75
2022-09-06T21:47:41.468Z,15.69
2022-09-06T21:50:09.440Z,15.65
2022-09-06T21:52:36.684Z,15.42
2022-09-06T21:55:06.365Z,15.21
2022-09-06T21:57:33.955Z,15.29
2022-09-06T22:00:01.176Z,15.39
2022-09-06T22:02:28.530Z,15.32
2022-09-06T22:04:56.278Z,15.07
2022-09-06T22:07:23.434Z,15.02
2022-09-06T22:09:50.618Z,14.75
2022-09-06T22:12:18.197Z,14.65
2022-09-06T22:14:46.867Z,14.95
2022-09-06T22:17:14.006Z,15.03
2022-09-06T22:19:41.667Z,14.90
2022-09-06T22:22:08.830Z,15.06
2022-09-06T22:24:36.547Z,14.96
2022-09-06T22:27:04.259Z,14.64
2022-09-06T22:29:31.366Z,14.88
2022-09-06T22:31:58.503Z,15.08
2022-09-06T22:34:26.093Z,14.86
2022-09-06T22:36:53.318Z,14.29
2022-09-06T22:39:20.675Z,14.48
2022-09-06T22:41:48.380Z,14.17
2022-09-06T22:44:15.906Z,14.35
2022-09-06T22:46:43.131Z,14.51
2022-09-06T22:49:10.634Z,14.41
2022-09-06T22:51:37.846Z,14.50
2022-09-06T22:54:05.249Z,14.61
2022-09-06T22:56:32.793Z,14.58
2022-09-06T22:59:00.672Z,14.55
2022-09-06T23:01:27.948Z,14.55
2022-09-06T23:03:55.522Z,14.46
2022-09-06T23:06:22.636Z,14.33
2022-09-06T23:08:49.865Z,14.17
2022-09-06T23:11:18.850Z,14.31
2022-09-06T23:13:47.301Z,14.20
2022-09-06T23:16:19.491Z,14.06
2022-09-06T23:18:47.143Z,14.09
2022-09-06T23:21:15.497Z,13.86
2022-09-06T23:23:43.025Z,14.02
2022-09-06T23:26:11.822Z,13.94
2022-09-06T23:28:39.423Z,14.16
2022-09-06T23:31:08.425Z,14.02
2022-09-06T23:33:37.472Z,14.26
2022-09-06T23:36:05.273Z,14.20
2022-09-06T23:38:33.727Z,14.05
2022-09-06T23:41:01.897Z,13.74
2022-09-06T23:43:29.256Z,13.97
2022-09-06T23:45:56.476Z,13.96
2022-09-06T23:48:24.230Z,13.95
2022-09-06T23:50:51.379Z,13.88
2022-09-06T23:53:18.605Z,13.79
2022-09-06T23:55:46.053Z,13.57
2022-09-06T23:58:13.427Z,13.75
